Aviation Digital Data Service (ADDS)

Output produced by METARs form (1100 UTC 16 February 2019)
found at http://www.aviationweather.gov/metar/data/
 
KDOV 161056Z AUTO 32011KT 10SM FEW060 FEW070 05/M07 A2984 RMK AO2 SLP108 T00521070 $
TAF KDOV 160800Z 1608/1714 33009KT 9999 BKN080 QNH2970INS 
     TEMPO 1608/1610 34012G20KT 
     BECMG 1617/1618 35007KT 9999 FEW080 FEW250 QNH2994INS WND 04007KT AFT 1710
TX08/1608Z TN00/1708Z